sensor_id;sensor_type;location;lat;lon;timestamp;pressure;altitude;pressure_sealevel;temperature;humidity
23164;BME280;31429;42.674;23.350;2023-04-19T00:00:24;94376.28;;;10.36;100.00
23164;BME280;31429;42.674;23.350;2023-04-19T00:01:26;94383.00;;;10.38;100.00
23164;BME280;31429;42.674;23.350;2023-04-19T00:02:27;94385.63;;;10.37;100.00
23164;BME280;31429;42.674;23.350;2023-04-19T00:03:28;94382.56;;;10.29;100.00
23164;BME280;31429;42.674;23.350;2023-04-19T00:04:29;94380.28;;;10.23;100.00
23164;BME280;31429;42.674;23.350;2023-04-19T00:05:31;94376.31;;;10.16;100.00
23164;BME280;31429;42.674;23.350;2023-04-19T00:06:32;94383.06;;;10.17;100.00
23164;BME280;31429;42.674;23.350;2023-04-19T00:07:33;94379.03;;;10.11;100.00
23164;BME280;31429;42.674;23.350;2023-04-19T00:08:34;94372.44;;;10.06;100.00
23164;BME280;31429;42.674;23.350;2023-04-19T00:09:35;94373.50;;;10.02;100.00
23164;BME280;31429;42.674;23.350;2023-04-19T00:10:36;94374.41;;;9.99;100.00
23164;BME280;31429;42.674;23.350;2023-04-19T00:11:38;94380.44;;;9.98;100.00
23164;BME280;31429;42.674;23.350;2023-04-19T00:12:38;94385.66;;;9.95;100.00
23164;BME280;31429;42.674;23.350;2023-04-19T00:13:39;94372.31;;;10.09;100.00
23164;BME280;31429;42.674;23.350;2023-04-19T00:14:40;94372.72;;;10.20;100.00
23164;BME280;31429;42.674;23.350;2023-04-19T00:15:40;94369.84;;;10.27;100.00
23164;BME280;31429;42.674;23.350;2023-04-19T00:16:41;94376.69;;;10.27;100.00
23164;BME280;31429;42.674;23.350;2023-04-19T00:17:41;94366.34;;;10.30;100.00
23164;BME280;31429;42.674;23.350;2023-04-19T00:18:42;94373.50;;;10.22;100.00
23164;BME280;31429;42.674;23.350;2023-04-19T00:19:43;94372.56;;;10.24;100.00
23164;BME280;31429;42.674;23.350;2023-04-19T00:20:45;94368.97;;;10.28;100.00
23164;BME280;31429;42.674;23.350;2023-04-19T00:21:48;94369.09;;;10.25;100.00
23164;BME280;31429;42.674;23.350;2023-04-19T00:22:48;94367.97;;;10.11;100.00
23164;BME280;31429;42.674;23.350;2023-04-19T00:23:49;94365.84;;;10.02;100.00
23164;BME280;31429;42.674;23.350;2023-04-19T00:24:50;94366.72;;;10.01;100.00
23164;BME280;31429;42.674;23.350;2023-04-19T00:25:50;94366.00;;;9.97;100.00
23164;BME280;31429;42.674;23.350;2023-04-19T00:26:51;94366.59;;;10.04;100.00
23164;BME280;31429;42.674;23.350;2023-04-19T00:27:51;94364.66;;;10.09;100.00
23164;BME280;31429;42.674;23.350;2023-04-19T00:28:52;94364.91;;;10.03;100.00
23164;BME280;31429;42.674;23.350;2023-04-19T00:29:53;94358.94;;;10.04;100.00
23164;BME280;31429;42.674;23.350;2023-04-19T00:30:53;94357.09;;;10.07;100.00
23164;BME280;31429;42.674;23.350;2023-04-19T00:31:54;94356.13;;;10.10;100.00
23164;BME280;31429;42.674;23.350;2023-04-19T00:32:55;94358.16;;;10.02;100.00
23164;BME280;31429;42.674;23.350;2023-04-19T00:33:55;94357.75;;;9.91;100.00
23164;BME280;31429;42.674;23.350;2023-04-19T00:34:56;94356.94;;;9.90;100.00
23164;BME280;31429;42.674;23.350;2023-04-19T00:35:58;94349.53;;;9.84;100.00
23164;BME280;31429;42.674;23.350;2023-04-19T00:36:59;94357.31;;;9.81;100.00
23164;BME280;31429;42.674;23.350;2023-04-19T00:38:00;94358.91;;;9.83;100.00
23164;BME280;31429;42.674;23.350;2023-04-19T00:39:01;94360.13;;;9.95;100.00
23164;BME280;31429;42.674;23.350;2023-04-19T00:40:01;94363.78;;;10.10;100.00
23164;BME280;31429;42.674;23.350;2023-04-19T00:41:03;94359.00;;;10.22;100.00
23164;BME280;31429;42.674;23.350;2023-04-19T00:42:04;94355.47;;;10.25;100.00
23164;BME280;31429;42.674;23.350;2023-04-19T00:43:05;94363.09;;;10.26;100.00
23164;BME280;31429;42.674;23.350;2023-04-19T00:44:05;94354.19;;;10.35;100.00
23164;BME280;31429;42.674;23.350;2023-04-19T00:45:07;94356.50;;;10.41;100.00
23164;BME280;31429;42.674;23.350;2023-04-19T00:46:08;94356.41;;;10.43;100.00
23164;BME280;31429;42.674;23.350;2023-04-19T00:47:09;94353.16;;;10.39;100.00
23164;BME280;31429;42.674;23.350;2023-04-19T00:48:10;94356.81;;;10.33;100.00
23164;BME280;31429;42.674;23.350;2023-04-19T00:49:11;94357.22;;;10.24;100.00
23164;BME280;31429;42.674;23.350;2023-04-19T00:50:12;94357.63;;;10.15;100.00
23164;BME280;31429;42.674;23.350;2023-04-19T00:51:14;94356.81;;;10.13;100.00
23164;BME280;31429;42.674;23.350;2023-04-19T00:52:15;94349.41;;;10.07;100.00
23164;BME280;31429;42.674;23.350;2023-04-19T00:53:16;94354.81;;;10.00;100.00
23164;BME280;31429;42.674;23.350;2023-04-19T00:54:17;94351.78;;;9.92;100.00
23164;BME280;31429;42.674;23.350;2023-04-19T00:55:18;94354.56;;;9.86;100.00
23164;BME280;31429;42.674;23.350;2023-04-19T00:56:20;94351.31;;;9.82;100.00
23164;BME280;31429;42.674;23.350;2023-04-19T00:57:21;94351.47;;;9.79;100.00
23164;BME280;31429;42.674;23.350;2023-04-19T00:58:22;94353.34;;;9.74;100.00
23164;BME280;31429;42.674;23.350;2023-04-19T00:59:23;94349.09;;;9.74;100.00
23164;BME280;31429;42.674;23.350;2023-04-19T01:00:24;94348.25;;;9.74;100.00
23164;BME280;31429;42.674;23.350;2023-04-19T01:01:24;94351.75;;;9.71;100.00
23164;BME280;31429;42.674;23.350;2023-04-19T01:02:25;94347.56;;;9.70;100.00
23164;BME280;31429;42.674;23.350;2023-04-19T01:03:27;94345.19;;;9.86;100.00
23164;BME280;31429;42.674;23.350;2023-04-19T01:04:28;94349.16;;;9.93;100.00
23164;BME280;31429;42.674;23.350;2023-04-19T01:05:29;94349.22;;;9.92;100.00
23164;BME280;31429;42.674;23.350;2023-04-19T01:06:32;94342.66;;;9.86;100.00
23164;BME280;31429;42.674;23.350;2023-04-19T01:07:33;94344.44;;;9.84;100.00
23164;BME280;31429;42.674;23.350;2023-04-19T01:08:34;94336.78;;;9.84;100.00
23164;BME280;31429;42.674;23.350;2023-04-19T01:09:39;94340.47;;;9.77;100.00
23164;BME280;31429;42.674;23.350;2023-04-19T01:10:40;94340.47;;;9.77;100.00
23164;BME280;31429;42.674;23.350;2023-04-19T01:11:40;94338.88;;;9.74;100.00
23164;BME280;31429;42.674;23.350;2023-04-19T01:12:41;94330.13;;;9.80;100.00
23164;BME280;31429;42.674;23.350;2023-04-19T01:13:41;94345.69;;;9.94;100.00
23164;BME280;31429;42.674;23.350;2023-04-19T01:14:42;94334.84;;;9.89;100.00
23164;BME280;31429;42.674;23.350;2023-04-19T01:15:43;94338.50;;;9.83;100.00
23164;BME280;31429;42.674;23.350;2023-04-19T01:16:44;94339.22;;;9.87;100.00
23164;BME280;31429;42.674;23.350;2023-04-19T01:17:45;94341.56;;;9.92;100.00
23164;BME280;31429;42.674;23.350;2023-04-19T01:18:45;94339.00;;;9.92;100.00
23164;BME280;31429;42.674;23.350;2023-04-19T01:19:46;94338.25;;;10.10;100.00
23164;BME280;31429;42.674;23.350;2023-04-19T01:20:47;94345.06;;;10.09;100.00
23164;BME280;31429;42.674;23.350;2023-04-19T01:21:49;94343.66;;;10.02;100.00
23164;BME280;31429;42.674;23.350;2023-04-19T01:22:53;94340.69;;;10.13;100.00
23164;BME280;31429;42.674;23.350;2023-04-19T01:23:54;94339.53;;;10.20;100.00
23164;BME280;31429;42.674;23.350;2023-04-19T01:24:54;94334.38;;;10.21;100.00
23164;BME280;31429;42.674;23.350;2023-04-19T01:25:55;94337.81;;;10.20;100.00
23164;BME280;31429;42.674;23.350;2023-04-19T01:26:56;94343.13;;;10.16;100.00
23164;BME280;31429;42.674;23.350;2023-04-19T01:27:56;94336.97;;;10.20;100.00
23164;BME280;31429;42.674;23.350;2023-04-19T01:28:57;94340.28;;;10.22;100.00
23164;BME280;31429;42.674;23.350;2023-04-19T01:29:57;94346.56;;;10.15;100.00
23164;BME280;31429;42.674;23.350;2023-04-19T01:30:58;94342.34;;;10.14;100.00
23164;BME280;31429;42.674;23.350;2023-04-19T01:31:59;94342.28;;;10.15;100.00
23164;BME280;31429;42.674;23.350;2023-04-19T01:32:59;94347.00;;;10.04;100.00
23164;BME280;31429;42.674;23.350;2023-04-19T01:34:00;94344.81;;;9.95;100.00
23164;BME280;31429;42.674;23.350;2023-04-19T01:35:00;94345.78;;;9.93;100.00
23164;BME280;31429;42.674;23.350;2023-04-19T01:36:01;94340.22;;;10.03;100.00
23164;BME280;31429;42.674;23.350;2023-04-19T01:37:02;94346.88;;;10.07;100.00
23164;BME280;31429;42.674;23.350;2023-04-19T01:38:04;94345.19;;;10.06;100.00
23164;BME280;31429;42.674;23.350;2023-04-19T01:39:05;94339.75;;;9.94;100.00
23164;BME280;31429;42.674;23.350;2023-04-19T01:40:06;94342.53;;;9.89;100.00
23164;BME280;31429;42.674;23.350;2023-04-19T01:41:07;94334.78;;;9.91;100.00
23164;BME280;31429;42.674;23.350;2023-04-19T01:42:08;94336.44;;;9.92;100.00
23164;BME280;31429;42.674;23.350;2023-04-19T01:43:11;94338.25;;;9.90;100.00
23164;BME280;31429;42.674;23.350;2023-04-19T01:44:12;94341.59;;;10.10;100.00
23164;BME280;31429;42.674;23.350;2023-04-19T01:45:13;94332.63;;;10.02;100.00
23164;BME280;31429;42.674;23.350;2023-04-19T01:46:13;94333.19;;;10.08;100.00
23164;BME280;31429;42.674;23.350;2023-04-19T01:47:14;94334.28;;;10.03;100.00
23164;BME280;31429;42.674;23.350;2023-04-19T01:48:15;94333.38;;;10.04;100.00
23164;BME280;31429;42.674;23.350;2023-04-19T01:49:15;94333.50;;;10.01;100.00
23164;BME280;31429;42.674;23.350;2023-04-19T01:50:16;94336.41;;;9.93;100.00
23164;BME280;31429;42.674;23.350;2023-04-19T01:51:17;94331.22;;;9.95;100.00
23164;BME280;31429;42.674;23.350;2023-04-19T01:52:17;94334.22;;;10.04;100.00
23164;BME280;31429;42.674;23.350;2023-04-19T01:53:19;94337.03;;;9.98;100.00
23164;BME280;31429;42.674;23.350;2023-04-19T01:54:20;94334.03;;;9.89;100.00
23164;BME280;31429;42.674;23.350;2023-04-19T01:55:21;94335.75;;;9.88;100.00
23164;BME280;31429;42.674;23.350;2023-04-19T01:56:21;94330.06;;;10.02;100.00
23164;BME280;31429;42.674;23.350;2023-04-19T01:57:22;94326.44;;;10.07;100.00
23164;BME280;31429;42.674;23.350;2023-04-19T01:58:22;94325.38;;;10.13;100.00
23164;BME280;31429;42.674;23.350;2023-04-19T01:59:23;94333.41;;;10.24;100.00
23164;BME280;31429;42.674;23.350;2023-04-19T02:00:24;94331.34;;;10.12;100.00
23164;BME280;31429;42.674;23.350;2023-04-19T02:01:24;94334.78;;;10.11;100.00
23164;BME280;31429;42.674;23.350;2023-04-19T02:02:25;94332.69;;;10.00;100.00
23164;BME280;31429;42.674;23.350;2023-04-19T02:03:26;94330.22;;;9.99;100.00
23164;BME280;31429;42.674;23.350;2023-04-19T02:04:26;94334.28;;;10.03;100.00
23164;BME280;31429;42.674;23.350;2023-04-19T02:05:27;94324.19;;;10.00;100.00
23164;BME280;31429;42.674;23.350;2023-04-19T02:06:27;94328.66;;;9.95;100.00
23164;BME280;31429;42.674;23.350;2023-04-19T02:07:28;94326.44;;;10.07;100.00
23164;BME280;31429;42.674;23.350;2023-04-19T02:08:31;94322.69;;;10.16;100.00
23164;BME280;31429;42.674;23.350;2023-04-19T02:09:34;94332.56;;;10.03;100.00
23164;BME280;31429;42.674;23.350;2023-04-19T02:10:35;94327.06;;;10.12;100.00
23164;BME280;31429;42.674;23.350;2023-04-19T02:11:35;94327.84;;;10.14;100.00
23164;BME280;31429;42.674;23.350;2023-04-19T02:12:36;94330.97;;;10.01;100.00
23164;BME280;31429;42.674;23.350;2023-04-19T02:13:37;94335.09;;;10.03;100.00
23164;BME280;31429;42.674;23.350;2023-04-19T02:14:37;94327.38;;;10.05;100.00
23164;BME280;31429;42.674;23.350;2023-04-19T02:15:38;94330.38;;;9.94;100.00
23164;BME280;31429;42.674;23.350;2023-04-19T02:16:39;94329.25;;;9.81;100.00
23164;BME280;31429;42.674;23.350;2023-04-19T02:17:39;94324.06;;;9.82;100.00
23164;BME280;31429;42.674;23.350;2023-04-19T02:18:40;94324.06;;;10.03;100.00
23164;BME280;31429;42.674;23.350;2023-04-19T02:19:41;94324.75;;;10.06;100.00
23164;BME280;31429;42.674;23.350;2023-04-19T02:20:42;94321.06;;;10.13;100.00
23164;BME280;31429;42.674;23.350;2023-04-19T02:21:42;94315.75;;;10.38;100.00
23164;BME280;31429;42.674;23.350;2023-04-19T02:22:43;94320.16;;;10.53;100.00
23164;BME280;31429;42.674;23.350;2023-04-19T02:23:45;94322.03;;;10.50;100.00
23164;BME280;31429;42.674;23.350;2023-04-19T02:24:48;94319.75;;;10.44;100.00
23164;BME280;31429;42.674;23.350;2023-04-19T02:25:49;94317.06;;;10.47;100.00
23164;BME280;31429;42.674;23.350;2023-04-19T02:26:49;94319.81;;;10.42;100.00
23164;BME280;31429;42.674;23.350;2023-04-19T02:27:50;94313.09;;;10.39;100.00
23164;BME280;31429;42.674;23.350;2023-04-19T02:29:09;94316.28;;;10.45;100.00
23164;BME280;31429;42.674;23.350;2023-04-19T02:30:10;94306.28;;;10.59;100.00
23164;BME280;31429;42.674;23.350;2023-04-19T02:31:11;94312.84;;;10.46;100.00
23164;BME280;31429;42.674;23.350;2023-04-19T02:32:12;94310.50;;;10.41;100.00
23164;BME280;31429;42.674;23.350;2023-04-19T02:33:13;94324.03;;;10.24;100.00
23164;BME280;31429;42.674;23.350;2023-04-19T02:34:14;94318.44;;;9.95;100.00
23164;BME280;31429;42.674;23.350;2023-04-19T02:35:15;94319.03;;;9.81;100.00
23164;BME280;31429;42.674;23.350;2023-04-19T02:36:16;94322.47;;;9.80;100.00
23164;BME280;31429;42.674;23.350;2023-04-19T02:37:17;94321.88;;;9.73;100.00
23164;BME280;31429;42.674;23.350;2023-04-19T02:38:17;94323.09;;;9.65;100.00
23164;BME280;31429;42.674;23.350;2023-04-19T02:39:19;94320.38;;;9.69;100.00
23164;BME280;31429;42.674;23.350;2023-04-19T02:40:20;94322.84;;;9.71;100.00
23164;BME280;31429;42.674;23.350;2023-04-19T02:41:22;94327.16;;;9.70;100.00
23164;BME280;31429;42.674;23.350;2023-04-19T02:42:22;94325.47;;;9.69;100.00
23164;BME280;31429;42.674;23.350;2023-04-19T02:43:23;94316.72;;;9.75;100.00
23164;BME280;31429;42.674;23.350;2023-04-19T02:44:24;94325.34;;;9.72;100.00
23164;BME280;31429;42.674;23.350;2023-04-19T02:45:25;94320.88;;;9.77;100.00
23164;BME280;31429;42.674;23.350;2023-04-19T02:46:25;94321.25;;;9.89;100.00
23164;BME280;31429;42.674;23.350;2023-04-19T02:47:26;94319.34;;;9.94;100.00
23164;BME280;31429;42.674;23.350;2023-04-19T02:48:26;94325.22;;;9.75;100.00
23164;BME280;31429;42.674;23.350;2023-04-19T02:49:29;94329.38;;;9.78;100.00
23164;BME280;31429;42.674;23.350;2023-04-19T02:50:36;94319.91;;;9.80;100.00
23164;BME280;31429;42.674;23.350;2023-04-19T02:51:36;94319.66;;;9.86;100.00
23164;BME280;31429;42.674;23.350;2023-04-19T02:52:37;94322.69;;;10.16;100.00
23164;BME280;31429;42.674;23.350;2023-04-19T02:53:38;94321.63;;;10.00;100.00
23164;BME280;31429;42.674;23.350;2023-04-19T02:54:40;94319.03;;;10.01;100.00
23164;BME280;31429;42.674;23.350;2023-04-19T02:55:41;94323.34;;;9.99;100.00
23164;BME280;31429;42.674;23.350;2023-04-19T02:56:42;94321.97;;;9.92;100.00
23164;BME280;31429;42.674;23.350;2023-04-19T02:57:42;94321.25;;;9.89;100.00
23164;BME280;31429;42.674;23.350;2023-04-19T02:58:43;94324.41;;;9.75;100.00
23164;BME280;31429;42.674;23.350;2023-04-19T02:59:43;94316.34;;;9.84;100.00
23164;BME280;31429;42.674;23.350;2023-04-19T03:00:44;94318.13;;;9.82;100.00
23164;BME280;31429;42.674;23.350;2023-04-19T03:01:45;94326.06;;;9.76;100.00
23164;BME280;31429;42.674;23.350;2023-04-19T03:02:45;94321.25;;;9.68;100.00
23164;BME280;31429;42.674;23.350;2023-04-19T03:03:46;94324.16;;;9.81;100.00
23164;BME280;31429;42.674;23.350;2023-04-19T03:04:47;94318.53;;;9.73;100.00
23164;BME280;31429;42.674;23.350;2023-04-19T03:05:48;94324.75;;;9.66;100.00
23164;BME280;31429;42.674;23.350;2023-04-19T03:06:51;94323.41;;;9.57;100.00
23164;BME280;31429;42.674;23.350;2023-04-19T03:07:51;94325.34;;;9.52;100.00
23164;BME280;31429;42.674;23.350;2023-04-19T03:08:52;94321.69;;;9.58;100.00
23164;BME280;31429;42.674;23.350;2023-04-19T03:09:54;94322.53;;;9.58;100.00
23164;BME280;31429;42.674;23.350;2023-04-19T03:10:55;94325.28;;;9.74;100.00
23164;BME280;31429;42.674;23.350;2023-04-19T03:11:55;94314.75;;;9.81;100.00
23164;BME280;31429;42.674;23.350;2023-04-19T03:12:56;94317.63;;;9.94;100.00
23164;BME280;31429;42.674;23.350;2023-04-19T03:13:56;94322.56;;;9.78;100.00
23164;BME280;31429;42.674;23.350;2023-04-19T03:14:57;94313.59;;;9.89;100.00
23164;BME280;31429;42.674;23.350;2023-04-19T03:15:58;94312.72;;;9.69;100.00
23164;BME280;31429;42.674;23.350;2023-04-19T03:16:58;94318.53;;;9.73;100.00
23164;BME280;31429;42.674;23.350;2023-04-19T03:17:59;94316.09;;;9.70;100.00
23164;BME280;31429;42.674;23.350;2023-04-19T03:19:00;94315.84;;;9.76;100.00
23164;BME280;31429;42.674;23.350;2023-04-19T03:20:00;94317.38;;;9.80;100.00
23164;BME280;31429;42.674;23.350;2023-04-19T03:21:02;94318.53;;;9.73;100.00
23164;BME280;31429;42.674;23.350;2023-04-19T03:22:03;94314.56;;;9.66;100.00
23164;BME280;31429;42.674;23.350;2023-04-19T03:23:03;94320.81;;;9.59;100.00
23164;BME280;31429;42.674;23.350;2023-04-19T03:24:04;94316.00;;;9.51;100.00
23164;BME280;31429;42.674;23.350;2023-04-19T03:25:07;94324.25;;;9.58;100.00
23164;BME280;31429;42.674;23.350;2023-04-19T03:26:11;94315.25;;;9.49;100.00
23164;BME280;31429;42.674;23.350;2023-04-19T03:27:12;94320.69;;;9.42;100.00
23164;BME280;31429;42.674;23.350;2023-04-19T03:28:13;94312.56;;;9.52;100.00
23164;BME280;31429;42.674;23.350;2023-04-19T03:29:13;94320.69;;;9.42;100.00
23164;BME280;31429;42.674;23.350;2023-04-19T03:30:14;94311.03;;;9.48;100.00
23164;BME280;31429;42.674;23.350;2023-04-19T03:31:15;94315.38;;;9.46;100.00
23164;BME280;31429;42.674;23.350;2023-04-19T03:32:16;94322.16;;;9.47;100.00
23164;BME280;31429;42.674;23.350;2023-04-19T03:33:16;94324.94;;;9.41;100.00
23164;BME280;31429;42.674;23.350;2023-04-19T03:34:17;94321.19;;;9.50;100.00
23164;BME280;31429;42.674;23.350;2023-04-19T03:35:17;94325.09;;;9.37;100.00
23164;BME280;31429;42.674;23.350;2023-04-19T03:36:18;94326.78;;;9.38;100.00
23164;BME280;31429;42.674;23.350;2023-04-19T03:37:19;94324.31;;;9.36;100.00
23164;BME280;31429;42.674;23.350;2023-04-19T03:38:19;94324.94;;;9.41;100.00
23164;BME280;31429;42.674;23.350;2023-04-19T03:39:20;94318.44;;;9.74;100.00
23164;BME280;31429;42.674;23.350;2023-04-19T03:40:22;94320.97;;;9.76;100.00
23164;BME280;31429;42.674;23.350;2023-04-19T03:41:24;94320.38;;;9.69;100.00
23164;BME280;31429;42.674;23.350;2023-04-19T03:42:25;94320.16;;;9.74;100.00
23164;BME280;31429;42.674;23.350;2023-04-19T03:43:26;94316.34;;;9.64;100.00
23164;BME280;31429;42.674;23.350;2023-04-19T03:44:26;94322.28;;;9.64;100.00
23164;BME280;31429;42.674;23.350;2023-04-19T03:45:27;94321.47;;;9.84;100.00
23164;BME280;31429;42.674;23.350;2023-04-19T03:46:27;94315.00;;;9.96;100.00
23164;BME280;31429;42.674;23.350;2023-04-19T03:47:31;94311.56;;;10.17;100.00
23164;BME280;31429;42.674;23.350;2023-04-19T03:48:32;94320.19;;;10.14;100.00
23164;BME280;31429;42.674;23.350;2023-04-19T03:49:34;94315.25;;;10.10;100.00
23164;BME280;31429;42.674;23.350;2023-04-19T03:50:35;94311.13;;;9.87;100.00
23164;BME280;31429;42.674;23.350;2023-04-19T03:51:36;94316.97;;;9.69;100.00
23164;BME280;31429;42.674;23.350;2023-04-19T03:52:36;94315.03;;;9.75;100.00
23164;BME280;31429;42.674;23.350;2023-04-19T03:53:37;94315.28;;;9.69;100.00
23164;BME280;31429;42.674;23.350;2023-04-19T03:54:37;94321.22;;;9.70;100.00
23164;BME280;31429;42.674;23.350;2023-04-19T03:55:39;94311.97;;;9.67;100.00
23164;BME280;31429;42.674;23.350;2023-04-19T03:56:40;94316.09;;;9.50;100.00
23164;BME280;31429;42.674;23.350;2023-04-19T03:57:41;94317.59;;;9.54;100.00
23164;BME280;31429;42.674;23.350;2023-04-19T03:58:41;94319.28;;;9.55;100.00
23164;BME280;31429;42.674;23.350;2023-04-19T03:59:42;94313.66;;;9.47;100.00
23164;BME280;31429;42.674;23.350;2023-04-19T04:00:43;94311.25;;;9.64;100.00
23164;BME280;31429;42.674;23.350;2023-04-19T04:01:43;94311.00;;;9.70;100.00
23164;BME280;31429;42.674;23.350;2023-04-19T04:02:44;94312.75;;;9.68;100.00
23164;BME280;31429;42.674;23.350;2023-04-19T04:03:44;94308.19;;;9.76;100.00
23164;BME280;31429;42.674;23.350;2023-04-19T04:04:45;94310.75;;;9.56;100.00
23164;BME280;31429;42.674;23.350;2023-04-19T04:05:46;94314.84;;;9.38;100.00
23164;BME280;31429;42.674;23.350;2023-04-19T04:06:46;94313.47;;;9.51;100.00
23164;BME280;31429;42.674;23.350;2023-04-19T04:07:47;94312.81;;;9.46;100.00
23164;BME280;31429;42.674;23.350;2023-04-19T04:08:47;94310.91;;;9.51;100.00
23164;BME280;31429;42.674;23.350;2023-04-19T04:09:48;94313.56;;;9.48;100.00
23164;BME280;31429;42.674;23.350;2023-04-19T04:10:51;94308.59;;;9.45;100.00
23164;BME280;31429;42.674;23.350;2023-04-19T04:11:51;94321.03;;;9.33;100.00
23164;BME280;31429;42.674;23.350;2023-04-19T04:12:52;94318.81;;;9.45;100.00
23164;BME280;31429;42.674;23.350;2023-04-19T04:13:54;94326.53;;;9.44;100.00
23164;BME280;31429;42.674;23.350;2023-04-19T04:14:55;94331.03;;;9.37;100.00
23164;BME280;31429;42.674;23.350;2023-04-19T04:15:55;94324.88;;;9.63;100.00
23164;BME280;31429;42.674;23.350;2023-04-19T04:16:56;94324.34;;;9.35;100.00
23164;BME280;31429;42.674;23.350;2023-04-19T04:17:57;94323.81;;;9.68;100.00
23164;BME280;31429;42.674;23.350;2023-04-19T04:18:57;94331.84;;;9.59;100.00
23164;BME280;31429;42.674;23.350;2023-04-19T04:19:58;94328.50;;;9.37;100.00
23164;BME280;31429;42.674;23.350;2023-04-19T04:20:59;94331.63;;;9.44;100.00
23164;BME280;31429;42.674;23.350;2023-04-19T04:22:00;94328.09;;;9.48;100.00
23164;BME280;31429;42.674;23.350;2023-04-19T04:23:01;94333.75;;;9.54;100.00
23164;BME280;31429;42.674;23.350;2023-04-19T04:24:01;94324.69;;;9.47;100.00
23164;BME280;31429;42.674;23.350;2023-04-19T04:25:03;94328.78;;;9.71;100.00
23164;BME280;31429;42.674;23.350;2023-04-19T04:26:05;94324.88;;;9.63;100.00
23164;BME280;31429;42.674;23.350;2023-04-19T04:27:12;94331.53;;;9.67;100.00
23164;BME280;31429;42.674;23.350;2023-04-19T04:28:12;94328.75;;;9.51;100.00
23164;BME280;31429;42.674;23.350;2023-04-19T04:29:13;94328.34;;;9.62;100.00
23164;BME280;31429;42.674;23.350;2023-04-19T04:30:14;94331.28;;;9.73;100.00
23164;BME280;31429;42.674;23.350;2023-04-19T04:31:15;94330.09;;;9.81;100.00
23164;BME280;31429;42.674;23.350;2023-04-19T04:32:17;94330.34;;;9.75;100.00
23164;BME280;31429;42.674;23.350;2023-04-19T04:33:23;94339.69;;;9.55;100.00
23164;BME280;31429;42.674;23.350;2023-04-19T04:34:24;94334.66;;;9.53;100.00
23164;BME280;31429;42.674;23.350;2023-04-19T04:35:25;94327.50;;;9.61;100.00
23164;BME280;31429;42.674;23.350;2023-04-19T04:36:29;94331.84;;;9.59;100.00
23164;BME280;31429;42.674;23.350;2023-04-19T04:37:30;94336.50;;;9.50;100.00
23164;BME280;31429;42.674;23.350;2023-04-19T04:38:33;94331.16;;;9.56;100.00
23164;BME280;31429;42.674;23.350;2023-04-19T04:39:33;94334.72;;;9.72;100.00
23164;BME280;31429;42.674;23.350;2023-04-19T04:40:38;94332.19;;;9.92;100.00
23164;BME280;31429;42.674;23.350;2023-04-19T04:41:40;94334.16;;;9.86;100.00
23164;BME280;31429;42.674;23.350;2023-04-19T04:42:41;94326.56;;;9.84;100.00
23164;BME280;31429;42.674;23.350;2023-04-19T04:43:44;94326.47;;;9.65;100.00
23164;BME280;31429;42.674;23.350;2023-04-19T04:44:49;94331.84;;;9.79;100.00
23164;BME280;31429;42.674;23.350;2023-04-19T04:45:50;94332.81;;;9.77;100.00
23164;BME280;31429;42.674;23.350;2023-04-19T04:46:51;94330.63;;;9.68;100.00
23164;BME280;31429;42.674;23.350;2023-04-19T04:47:51;94333.13;;;9.69;100.00
23164;BME280;31429;42.674;23.350;2023-04-19T04:48:52;94329.38;;;9.78;100.00
23164;BME280;31429;42.674;23.350;2023-04-19T04:49:53;94340.56;;;9.54;100.00
23164;BME280;31429;42.674;23.350;2023-04-19T04:50:53;94337.63;;;9.43;100.00
23164;BME280;31429;42.674;23.350;2023-04-19T04:51:54;94338.34;;;9.46;100.00
23164;BME280;31429;42.674;23.350;2023-04-19T04:52:55;94338.56;;;9.62;100.00
23164;BME280;31429;42.674;23.350;2023-04-19T04:53:55;94342.31;;;9.53;100.00
23164;BME280;31429;42.674;23.350;2023-04-19T04:54:56;94341.31;;;9.77;100.00
23164;BME280;31429;42.674;23.350;2023-04-19T04:55:57;94340.00;;;9.88;100.00
23164;BME280;31429;42.674;23.350;2023-04-19T04:56:59;94333.06;;;9.91;100.00
23164;BME280;31429;42.674;23.350;2023-04-19T04:58:00;94332.41;;;9.66;100.00
23164;BME280;31429;42.674;23.350;2023-04-19T04:59:01;94337.47;;;9.67;100.00
23164;BME280;31429;42.674;23.350;2023-04-19T05:00:03;94335.06;;;9.85;100.00
23164;BME280;31429;42.674;23.350;2023-04-19T05:01:06;94332.63;;;9.81;100.00
23164;BME280;31429;42.674;23.350;2023-04-19T05:02:06;94341.41;;;9.74;100.00
23164;BME280;31429;42.674;23.350;2023-04-19T05:03:07;94341.09;;;9.82;100.00
23164;BME280;31429;42.674;23.350;2023-04-19T05:04:07;94341.19;;;9.80;100.00
23164;BME280;31429;42.674;23.350;2023-04-19T05:05:08;94336.06;;;9.80;100.00
23164;BME280;31429;42.674;23.350;2023-04-19T05:06:11;94339.22;;;9.87;100.00
23164;BME280;31429;42.674;23.350;2023-04-19T05:07:11;94341.25;;;9.79;100.00
23164;BME280;31429;42.674;23.350;2023-04-19T05:08:12;94346.19;;;9.82;100.00
23164;BME280;31429;42.674;23.350;2023-04-19T05:09:12;94342.72;;;9.85;100.00
23164;BME280;31429;42.674;23.350;2023-04-19T05:10:13;94350.63;;;9.78;100.00
23164;BME280;31429;42.674;23.350;2023-04-19T05:11:14;94338.75;;;9.77;100.00
23164;BME280;31429;42.674;23.350;2023-04-19T05:12:16;94343.25;;;9.71;100.00
23164;BME280;31429;42.674;23.350;2023-04-19T05:13:17;94346.88;;;9.87;100.00
23164;BME280;31429;42.674;23.350;2023-04-19T05:14:17;94337.34;;;9.91;100.00
23164;BME280;31429;42.674;23.350;2023-04-19T05:15:18;94338.66;;;9.99;100.00
23164;BME280;31429;42.674;23.350;2023-04-19T05:16:19;94346.41;;;9.98;100.00
23164;BME280;31429;42.674;23.350;2023-04-19T05:17:19;94342.78;;;10.03;100.00
23164;BME280;31429;42.674;23.350;2023-04-19T05:18:20;94353.19;;;9.99;100.00